createdAt,value
2022-09-12T00:00:01.702Z,93564.34
2022-09-12T00:01:10.651Z,93563.56
2022-09-12T00:02:07.355Z,93546.53
2022-09-12T00:03:04.103Z,93561.72
2022-09-12T00:04:02.090Z,93556.72
2022-09-12T00:04:59.182Z,93556.56
2022-09-12T00:05:55.801Z,93563.50
2022-09-12T00:06:52.608Z,93561.28
2022-09-12T00:07:49.725Z,93516.84
2022-09-12T00:08:46.627Z,93560.75
2022-09-12T00:09:43.553Z,93555.53
2022-09-12T00:10:41.875Z,93562.38
2022-09-12T00:11:44.088Z,93562.69
2022-09-12T00:12:41.204Z,93553.34
2022-09-12T00:13:41.721Z,93566.72
2022-09-12T00:14:38.743Z,93565.47
2022-09-12T00:15:43.879Z,93564.56
2022-09-12T00:16:41.184Z,93572.94
2022-09-12T00:17:38.967Z,93551.72
2022-09-12T00:18:35.564Z,93542.47
2022-09-12T00:19:32.176Z,93558.88
2022-09-12T00:20:28.780Z,93565.00
2022-09-12T00:21:25.461Z,93566.34
2022-09-12T00:22:22.115Z,93559.81
2022-09-12T00:23:18.776Z,93567.97
2022-09-12T00:24:15.404Z,93568.09
2022-09-12T00:25:12.228Z,93561.06
2022-09-12T00:26:09.613Z,93557.56
2022-09-12T00:27:06.347Z,93562.81
2022-09-12T00:28:02.996Z,93562.97
2022-09-12T00:28:59.638Z,93558.97
2022-09-12T00:29:56.354Z,93565.19
2022-09-12T00:30:53.005Z,93562.91
2022-09-12T00:31:49.664Z,93567.06
2022-09-12T00:32:46.334Z,93552.00
2022-09-12T00:33:43.582Z,93571.00
2022-09-12T00:34:40.128Z,93554.34
2022-09-12T00:35:50.291Z,93564.88
2022-09-12T00:36:46.987Z,93562.97
2022-09-12T00:37:43.588Z,93564.50
2022-09-12T00:38:42.130Z,93563.03
2022-09-12T00:39:39.170Z,93563.50
2022-09-12T00:40:35.821Z,93565.44
2022-09-12T00:41:38.714Z,93563.72
2022-09-12T00:42:35.282Z,93544.28
2022-09-12T00:43:39.806Z,93565.19
2022-09-12T00:44:39.395Z,93561.72
2022-09-12T00:45:36.110Z,93558.06
2022-09-12T00:46:44.735Z,93563.97
2022-09-12T00:47:42.156Z,93551.16
2022-09-12T00:48:44.354Z,93543.31
2022-09-12T00:49:52.069Z,93560.34
2022-09-12T00:50:49.896Z,93517.94
2022-09-12T00:51:56.035Z,93553.59
2022-09-12T00:52:57.119Z,93559.50
2022-09-12T00:53:55.606Z,93559.06
2022-09-12T00:55:07.473Z,93563.34
2022-09-12T00:56:04.172Z,93557.56
2022-09-12T00:57:05.794Z,93560.06
2022-09-12T00:58:09.197Z,93558.41
2022-09-12T00:59:22.546Z,93553.13
2022-09-12T01:00:21.396Z,93550.75
2022-09-12T01:01:19.198Z,93550.22
2022-09-12T01:02:16.290Z,93553.63
2022-09-12T01:03:16.017Z,93558.22
2022-09-12T01:04:13.592Z,93557.47
2022-09-12T01:05:11.210Z,93561.59
2022-09-12T01:06:11.968Z,93559.16
2022-09-12T01:07:09.115Z,93550.75
2022-09-12T01:08:06.348Z,93553.19
2022-09-12T01:09:05.018Z,93555.47
2022-09-12T01:10:01.926Z,93533.94
2022-09-12T01:10:58.726Z,93554.03
2022-09-12T01:11:55.932Z,93555.28
2022-09-12T01:12:52.636Z,93554.94
2022-09-12T01:13:50.787Z,93561.78
2022-09-12T01:14:47.483Z,93555.22
2022-09-12T01:15:44.146Z,93561.25
2022-09-12T01:16:41.153Z,93549.38
2022-09-12T01:17:48.891Z,93559.47
2022-09-12T01:18:51.870Z,93562.84
2022-09-12T01:20:31.881Z,93561.84
2022-09-12T01:22:08.518Z,93561.31
2022-09-12T01:23:26.096Z,93560.50
2022-09-12T01:24:35.357Z,93562.38
2022-09-12T01:26:13.561Z,93561.91
2022-09-12T01:27:25.429Z,93556.53
2022-09-12T01:28:49.163Z,93558.28
2022-09-12T01:30:05.988Z,93559.25
2022-09-12T01:31:09.045Z,93550.59
2022-09-12T01:32:49.401Z,93556.81
2022-09-12T01:34:15.363Z,93545.81
2022-09-12T01:35:25.750Z,93519.94
2022-09-12T01:36:49.559Z,93548.25
2022-09-12T01:37:45.977Z,93548.97
2022-09-12T01:38:48.263Z,93551.22
2022-09-12T01:40:03.596Z,93543.03
2022-09-12T01:41:31.144Z,93550.22
2022-09-12T01:42:38.623Z,93546.81
2022-09-12T01:43:53.522Z,93527.22
2022-09-12T01:45:05.288Z,93545.19
2022-09-12T01:46:35.219Z,93546.78
2022-09-12T01:47:41.078Z,93541.66
2022-09-12T01:48:58.082Z,93532.47
2022-09-12T01:50:07.039Z,93545.09
2022-09-12T01:51:32.363Z,93540.06
2022-09-12T01:52:28.927Z,93540.44
2022-09-12T01:53:32.367Z,93543.78
2022-09-12T01:54:40.026Z,93549.66
2022-09-12T01:55:46.484Z,93551.53
2022-09-12T01:56:46.309Z,93531.41
2022-09-12T01:57:51.333Z,93550.25
2022-09-12T01:58:54.608Z,93544.84
2022-09-12T01:59:57.699Z,93539.38
2022-09-12T02:01:10.213Z,93542.41
2022-09-12T02:02:17.039Z,93545.25
2022-09-12T02:03:39.670Z,93544.28
2022-09-12T02:04:44.861Z,93540.34
2022-09-12T02:05:47.054Z,93541.09
2022-09-12T02:06:56.737Z,93531.50
2022-09-12T02:08:26.209Z,93541.81
2022-09-12T02:09:39.838Z,93536.22
2022-09-12T02:11:00.504Z,93539.69
2022-09-12T02:12:00.870Z,93541.09
2022-09-12T02:13:03.627Z,93535.19
2022-09-12T02:14:09.268Z,93539.13
2022-09-12T02:15:09.428Z,93538.81
2022-09-12T02:16:12.745Z,93542.19
2022-09-12T02:17:13.533Z,93538.50
2022-09-12T02:18:14.638Z,93545.59
2022-09-12T02:19:16.376Z,93542.53
2022-09-12T02:20:47.410Z,93529.06
2022-09-12T02:21:51.086Z,93547.56
2022-09-12T02:22:50.282Z,93544.09
2022-09-12T02:23:56.047Z,93539.72
2022-09-12T02:24:59.630Z,93556.09
2022-09-12T02:26:05.971Z,93558.56
2022-09-12T02:27:11.628Z,93559.88
2022-09-12T02:28:15.425Z,93550.72
2022-09-12T02:29:12.117Z,93544.78
2022-09-12T02:30:10.059Z,93539.22
2022-09-12T02:31:40.264Z,93545.84
2022-09-12T02:32:38.520Z,93546.75
2022-09-12T02:34:13.555Z,93555.75
2022-09-12T02:35:34.862Z,93555.00
2022-09-12T02:37:00.903Z,93558.38
2022-09-12T02:38:14.765Z,93556.38
2022-09-12T02:39:11.414Z,93536.31
2022-09-12T02:40:09.882Z,93552.03
2022-09-12T02:41:07.373Z,93550.03
2022-09-12T02:42:04.700Z,93548.38
2022-09-12T02:43:03.110Z,93557.47
2022-09-12T02:43:59.819Z,93552.63
2022-09-12T02:44:57.392Z,93556.94
2022-09-12T02:45:54.220Z,93546.25
2022-09-12T02:46:55.686Z,93563.28
2022-09-12T02:47:58.732Z,93555.69
2022-09-12T02:48:56.595Z,93541.06
2022-09-12T02:49:54.169Z,93539.06
2022-09-12T02:50:51.339Z,93542.53
2022-09-12T02:51:48.875Z,93548.28
2022-09-12T02:52:46.639Z,93547.91
2022-09-12T02:53:43.320Z,93545.94
2022-09-12T02:54:40.563Z,93549.38
2022-09-12T02:55:40.181Z,93546.75
2022-09-12T02:56:41.915Z,93539.38
2022-09-12T02:57:38.645Z,93552.09
2022-09-12T02:58:35.470Z,93510.66
2022-09-12T02:59:32.159Z,93548.00
2022-09-12T03:00:34.967Z,93543.97
2022-09-12T03:01:50.371Z,93554.91
2022-09-12T03:03:05.367Z,93559.03
2022-09-12T03:04:17.671Z,93560.44
2022-09-12T03:05:24.960Z,93551.19
2022-09-12T03:06:35.420Z,93556.53
2022-09-12T03:07:39.807Z,93547.13
2022-09-12T03:09:01.488Z,93552.16
2022-09-12T03:10:12.307Z,93557.69
2022-09-12T03:11:34.275Z,93557.66
2022-09-12T03:12:55.499Z,93561.94
2022-09-12T03:14:31.799Z,93548.81
2022-09-12T03:15:41.630Z,93554.44
2022-09-12T03:16:54.327Z,93570.94
2022-09-12T03:17:56.747Z,93562.38
2022-09-12T03:19:06.042Z,93564.63
2022-09-12T03:20:19.848Z,93559.13
2022-09-12T03:21:44.767Z,93570.94
2022-09-12T03:22:56.621Z,93535.53
2022-09-12T03:24:05.157Z,93559.78
2022-09-12T03:25:21.522Z,93562.72
2022-09-12T03:26:44.692Z,93558.75
2022-09-12T03:27:47.002Z,93564.66
2022-09-12T03:28:45.465Z,93559.28
2022-09-12T03:29:44.718Z,93542.25
2022-09-12T03:30:43.808Z,93547.88
2022-09-12T03:31:50.388Z,93559.84
2022-09-12T03:32:50.235Z,93560.81
2022-09-12T03:33:46.833Z,93559.38
2022-09-12T03:34:43.456Z,93560.81
2022-09-12T03:35:40.234Z,93554.94
2022-09-12T03:36:36.794Z,93555.00
2022-09-12T03:37:33.553Z,93554.66
2022-09-12T03:38:30.163Z,93556.69
2022-09-12T03:39:27.091Z,93539.75
2022-09-12T03:40:23.691Z,93554.50
2022-09-12T03:41:20.953Z,93555.06
2022-09-12T03:42:17.511Z,93559.28
2022-09-12T03:43:14.086Z,93554.44
2022-09-12T03:44:10.722Z,93552.53
2022-09-12T03:45:08.847Z,93556.25
2022-09-12T03:46:05.770Z,93556.09
2022-09-12T03:47:02.426Z,93552.13
2022-09-12T03:47:59.813Z,93556.13
2022-09-12T03:48:56.568Z,93542.44
2022-09-12T03:49:53.216Z,93556.59
2022-09-12T03:50:49.781Z,93556.31
2022-09-12T03:51:46.416Z,93547.19
2022-09-12T03:52:43.009Z,93561.19
2022-09-12T03:53:39.618Z,93550.16
2022-09-12T03:54:36.407Z,93555.97
2022-09-12T03:55:32.996Z,93492.16
2022-09-12T03:56:30.303Z,93556.59
2022-09-12T03:57:26.945Z,93565.41
2022-09-12T03:58:24.291Z,93567.84
2022-09-12T03:59:20.889Z,93565.22
2022-09-12T04:00:19.876Z,93558.91
2022-09-12T04:01:19.033Z,93554.31
2022-09-12T04:02:15.774Z,93561.22
2022-09-12T04:03:12.435Z,93555.56
2022-09-12T04:04:11.800Z,93563.31
2022-09-12T04:05:08.712Z,93564.97
2022-09-12T04:06:05.712Z,93563.09
2022-09-12T04:07:02.392Z,93562.72
2022-09-12T04:07:59.038Z,93570.00
2022-09-12T04:08:55.740Z,93557.09
2022-09-12T04:09:53.288Z,93567.00
2022-09-12T04:10:49.849Z,93557.44
2022-09-12T04:11:46.535Z,93551.81
2022-09-12T04:12:43.386Z,93572.97
2022-09-12T04:13:41.640Z,93573.97
2022-09-12T04:14:38.629Z,93566.94
2022-09-12T04:15:35.187Z,93560.53
2022-09-12T04:16:32.498Z,93568.63
2022-09-12T04:17:29.082Z,93571.84
2022-09-12T04:18:26.174Z,93569.88
2022-09-12T04:19:23.610Z,93560.41
2022-09-12T04:20:20.261Z,93574.75
2022-09-12T04:21:19.741Z,93570.66
2022-09-12T04:22:16.335Z,93570.53
2022-09-12T04:23:12.913Z,93564.41
2022-09-12T04:24:09.590Z,93565.59
2022-09-12T04:25:07.287Z,93567.22
2022-09-12T04:26:06.587Z,93573.91
2022-09-12T04:27:07.586Z,93563.38
2022-09-12T04:28:04.650Z,93570.56
2022-09-12T04:29:01.236Z,93568.78
2022-09-12T04:29:58.275Z,93571.66
2022-09-12T04:30:55.748Z,93568.97
2022-09-12T04:31:52.332Z,93573.56
2022-09-12T04:32:48.886Z,93573.19
2022-09-12T04:33:45.753Z,93577.22
2022-09-12T04:34:42.324Z,93577.03
2022-09-12T04:35:38.910Z,93579.44
2022-09-12T04:36:35.692Z,93559.44
2022-09-12T04:37:32.250Z,93576.44
2022-09-12T04:38:29.077Z,93564.72
2022-09-12T04:39:25.763Z,93576.50
2022-09-12T04:40:22.601Z,93576.75
2022-09-12T04:41:24.837Z,93572.75
2022-09-12T04:42:21.432Z,93577.25
2022-09-12T04:43:18.008Z,93560.91
2022-09-12T04:44:15.086Z,93570.16
2022-09-12T04:45:13.003Z,93565.81
2022-09-12T04:46:11.681Z,93583.50
2022-09-12T04:47:08.704Z,93584.84
2022-09-12T04:48:05.372Z,93578.81
2022-09-12T04:49:02.309Z,93588.44
2022-09-12T04:49:59.029Z,93587.44
2022-09-12T04:50:55.592Z,93586.81
2022-09-12T04:51:54.977Z,93582.31
2022-09-12T04:52:52.845Z,93571.16
2022-09-12T04:53:52.069Z,93583.03
2022-09-12T04:54:48.616Z,93584.56
2022-09-12T04:55:45.244Z,93589.63
2022-09-12T04:56:44.883Z,93578.03
2022-09-12T04:57:41.495Z,93586.97
2022-09-12T04:58:38.765Z,93584.72
2022-09-12T04:59:35.761Z,93586.94
2022-09-12T05:00:33.224Z,93558.25
2022-09-12T05:01:30.378Z,93584.16
2022-09-12T05:02:27.432Z,93575.00
2022-09-12T05:03:24.050Z,93588.66
2022-09-12T05:04:21.525Z,93592.00
2022-09-12T05:05:18.214Z,93591.31
2022-09-12T05:06:20.852Z,93592.66
2022-09-12T05:07:17.437Z,93584.97
2022-09-12T05:08:14.021Z,93591.88
2022-09-12T05:09:12.588Z,93566.56
2022-09-12T05:10:10.141Z,93586.53
2022-09-12T05:11:22.713Z,93587.38
2022-09-12T05:12:21.310Z,93591.34
2022-09-12T05:13:17.966Z,93598.63
2022-09-12T05:14:14.535Z,93588.59
2022-09-12T05:15:11.685Z,93600.09
2022-09-12T05:16:10.625Z,93591.31
2022-09-12T05:17:08.555Z,93594.59
2022-09-12T05:18:05.224Z,93576.69
2022-09-12T05:19:01.819Z,93591.44
2022-09-12T05:19:58.549Z,93592.31
2022-09-12T05:20:56.074Z,93594.09
2022-09-12T05:21:52.636Z,93590.47
2022-09-12T05:22:49.174Z,93589.44
2022-09-12T05:23:47.763Z,93583.34
2022-09-12T05:24:49.880Z,93589.91
2022-09-12T05:25:52.510Z,93591.78
2022-09-12T05:26:49.065Z,93594.06
2022-09-12T05:27:50.382Z,93594.44
2022-09-12T05:28:49.405Z,93577.97
2022-09-12T05:29:45.999Z,93595.34
2022-09-12T05:30:42.645Z,93593.69
2022-09-12T05:31:39.476Z,93578.16
2022-09-12T05:32:36.149Z,93588.19
2022-09-12T05:33:34.519Z,93598.25
2022-09-12T05:34:31.196Z,93590.75
2022-09-12T05:35:27.761Z,93592.34
2022-09-12T05:36:27.029Z,93590.06
2022-09-12T05:37:23.906Z,93597.06
2022-09-12T05:38:20.507Z,93597.88
2022-09-12T05:39:18.591Z,93593.34
2022-09-12T05:40:17.808Z,93604.06
2022-09-12T05:41:24.710Z,93603.97
2022-09-12T05:42:21.900Z,93604.31
2022-09-12T05:43:20.348Z,93599.66
2022-09-12T05:44:17.701Z,93603.13
2022-09-12T05:45:14.934Z,93604.69
2022-09-12T05:46:14.870Z,93589.78
2022-09-12T05:47:12.464Z,93581.09
2022-09-12T05:48:09.078Z,93591.22
2022-09-12T05:49:08.131Z,93590.91
2022-09-12T05:50:10.762Z,93593.22
2022-09-12T05:51:10.510Z,93580.50
2022-09-12T05:52:07.733Z,93589.88
2022-09-12T05:53:04.461Z,93593.28
2022-09-12T05:54:03.458Z,93589.91
2022-09-12T05:55:00.152Z,93592.47
2022-09-12T05:56:14.164Z,93592.72
2022-09-12T05:57:10.828Z,93588.56
2022-09-12T05:58:07.482Z,93589.81
2022-09-12T05:59:06.712Z,93587.81
2022-09-12T06:00:05.873Z,93583.31
2022-09-12T06:01:08.092Z,93580.88
2022-09-12T06:02:04.760Z,93579.69
2022-09-12T06:03:01.540Z,93588.34
2022-09-12T06:04:03.280Z,93587.31
2022-09-12T06:04:59.870Z,93587.63
2022-09-12T06:05:56.463Z,93577.81
2022-09-12T06:06:53.087Z,93583.91
2022-09-12T06:07:49.649Z,93584.75
2022-09-12T06:08:48.673Z,93582.78
2022-09-12T06:09:45.220Z,93588.41
2022-09-12T06:10:41.797Z,93585.59
2022-09-12T06:11:42.399Z,93585.09
2022-09-12T06:12:39.149Z,93586.94
2022-09-12T06:13:37.739Z,93589.41
2022-09-12T06:14:34.599Z,93593.44
2022-09-12T06:15:31.175Z,93595.97
2022-09-12T06:16:30.122Z,93593.22
2022-09-12T06:17:26.784Z,93588.91
2022-09-12T06:18:23.436Z,93589.81
2022-09-12T06:19:22.341Z,93588.16
2022-09-12T06:20:20.288Z,93599.00
2022-09-12T06:21:16.892Z,93595.13
2022-09-12T06:22:13.984Z,93596.66
2022-09-12T06:23:10.593Z,93599.34
2022-09-12T06:24:10.257Z,93594.59
2022-09-12T06:25:07.361Z,93591.22
2022-09-12T06:26:05.265Z,93593.19
2022-09-12T06:27:02.548Z,93599.72
2022-09-12T06:27:59.203Z,93592.69
2022-09-12T06:28:57.725Z,93596.56
2022-09-12T06:29:54.402Z,93597.19
2022-09-12T06:30:51.154Z,93586.81
2022-09-12T06:31:47.829Z,93601.00
2022-09-12T06:32:44.647Z,93602.13
2022-09-12T06:33:44.312Z,93601.84
2022-09-12T06:34:40.910Z,93600.94
2022-09-12T06:35:38.605Z,93599.16
2022-09-12T06:36:42.288Z,93593.72
2022-09-12T06:37:38.880Z,93604.47
2022-09-12T06:38:35.588Z,93601.34
2022-09-12T06:39:32.619Z,93602.97
2022-09-12T06:40:29.847Z,93597.13
2022-09-12T06:41:27.488Z,93605.66
2022-09-12T06:42:24.860Z,93601.06
2022-09-12T06:43:21.493Z,93591.91
2022-09-12T06:44:22.404Z,93598.13
2022-09-12T06:45:20.056Z,93593.72
2022-09-12T06:46:16.824Z,93603.47
2022-09-12T06:47:13.534Z,93587.38
2022-09-12T06:48:10.131Z,93605.00
2022-09-12T06:49:08.201Z,93605.53
2022-09-12T06:50:05.702Z,93609.88
2022-09-12T06:51:07.276Z,93611.94
2022-09-12T06:52:03.987Z,93605.50
2022-09-12T06:53:00.581Z,93601.66
2022-09-12T06:53:58.152Z,93609.41
2022-09-12T06:54:54.787Z,93611.00
2022-09-12T06:56:01.688Z,93616.09
2022-09-12T06:56:58.251Z,93614.50
2022-09-12T06:57:55.485Z,93612.56
2022-09-12T06:58:53.679Z,93615.34
2022-09-12T06:59:50.806Z,93611.16
2022-09-12T07:00:47.427Z,93601.09
2022-09-12T07:01:44.355Z,93596.94
2022-09-12T07:02:41.150Z,93583.53
2022-09-12T07:03:39.173Z,93616.94
2022-09-12T07:04:37.170Z,93624.59
2022-09-12T07:05:34.141Z,93614.22
2022-09-12T07:06:37.045Z,93604.66
2022-09-12T07:07:35.877Z,93623.53
2022-09-12T07:08:34.170Z,93607.44
2022-09-12T07:09:30.943Z,93607.03
2022-09-12T07:10:27.613Z,93610.53
2022-09-12T07:11:26.693Z,93602.03
2022-09-12T07:12:23.302Z,93569.66
2022-09-12T07:13:19.960Z,93623.97
2022-09-12T07:14:16.896Z,93616.28
2022-09-12T07:15:13.624Z,93626.63
2022-09-12T07:16:13.820Z,93622.81
2022-09-12T07:17:12.600Z,93621.19
2022-09-12T07:18:10.636Z,93627.34
2022-09-12T07:19:08.756Z,93611.22
2022-09-12T07:20:05.866Z,93626.94
2022-09-12T07:21:02.990Z,93619.56
2022-09-12T07:21:59.551Z,93610.75
2022-09-12T07:22:56.235Z,93622.78
2022-09-12T07:23:55.322Z,93616.19
2022-09-12T07:24:53.491Z,93622.66
2022-09-12T07:25:57.633Z,93619.22
2022-09-12T07:26:54.643Z,93620.50
2022-09-12T07:27:53.108Z,93616.25
2022-09-12T07:28:54.656Z,93621.19
2022-09-12T07:29:51.274Z,93623.47
2022-09-12T07:30:47.943Z,93617.28
2022-09-12T07:31:45.330Z,93509.34
2022-09-12T07:32:41.967Z,93617.69
2022-09-12T07:33:40.284Z,93614.78
2022-09-12T07:34:37.305Z,93592.31
2022-09-12T07:35:34.325Z,93618.88
2022-09-12T07:36:31.091Z,93611.78
2022-09-12T07:37:31.228Z,93617.94
2022-09-12T07:38:27.870Z,93618.75
2022-09-12T07:39:24.685Z,93626.06
2022-09-12T07:40:21.905Z,93625.69
2022-09-12T07:41:24.693Z,93613.19
2022-09-12T07:42:21.311Z,93623.53
2022-09-12T07:43:17.987Z,93619.44
2022-09-12T07:44:14.793Z,93618.28
2022-09-12T07:45:11.412Z,93614.28
2022-09-12T07:46:09.343Z,93624.06
2022-09-12T07:47:06.432Z,93630.31
2022-09-12T07:48:04.073Z,93621.78
2022-09-12T07:49:01.568Z,93620.03
2022-09-12T07:49:58.615Z,93621.94
2022-09-12T07:51:04.447Z,93630.09
2022-09-12T07:52:01.239Z,93623.94
2022-09-12T07:52:57.897Z,93633.56
2022-09-12T07:53:56.439Z,93628.06
2022-09-12T07:54:53.146Z,93624.13
2022-09-12T07:55:56.784Z,93622.63
2022-09-12T07:56:53.554Z,93633.84
2022-09-12T07:57:51.171Z,93625.91
2022-09-12T07:58:48.603Z,93633.72
2022-09-12T07:59:53.379Z,93627.91
2022-09-12T08:00:50.661Z,93629.72
2022-09-12T08:01:47.773Z,93624.69
2022-09-12T08:02:44.794Z,93625.88
2022-09-12T08:03:43.281Z,93627.59
2022-09-12T08:04:42.192Z,93631.06
2022-09-12T08:05:38.883Z,93628.41
2022-09-12T08:06:37.031Z,93628.00
2022-09-12T08:07:34.215Z,93619.22
2022-09-12T08:08:31.234Z,93624.00
2022-09-12T08:09:27.960Z,93619.75
2022-09-12T08:10:24.809Z,93617.03
2022-09-12T08:11:23.086Z,93624.34
2022-09-12T08:12:20.521Z,93625.53
2022-09-12T08:13:17.294Z,93608.97
2022-09-12T08:14:13.901Z,93618.22
2022-09-12T08:15:10.817Z,93626.28
2022-09-12T08:16:12.330Z,93623.88
2022-09-12T08:17:09.088Z,93626.56
2022-09-12T08:18:05.860Z,93623.94
2022-09-12T08:19:03.814Z,93623.50
2022-09-12T08:20:00.560Z,93622.38
2022-09-12T08:21:24.844Z,93626.59
2022-09-12T08:22:22.093Z,93611.22
2022-09-12T08:23:21.366Z,93611.59
2022-09-12T08:24:18.005Z,93618.94
2022-09-12T08:25:15.198Z,93617.75
2022-09-12T08:26:12.678Z,93617.63
2022-09-12T08:27:09.444Z,93620.78
2022-09-12T08:28:06.337Z,93615.78
2022-09-12T08:29:04.303Z,93624.59
2022-09-12T08:30:00.860Z,93614.97
2022-09-12T08:31:05.578Z,93618.41
2022-09-12T08:32:03.007Z,93618.50
2022-09-12T08:32:59.597Z,93618.97
2022-09-12T08:33:57.787Z,93613.94
2022-09-12T08:34:54.365Z,93599.75
2022-09-12T08:35:50.927Z,93611.91
2022-09-12T08:36:48.005Z,93613.41
2022-09-12T08:37:44.581Z,93608.91
2022-09-12T08:38:44.023Z,93611.13
2022-09-12T08:39:40.742Z,93598.91
2022-09-12T08:40:53.273Z,93604.25
2022-09-12T08:41:59.172Z,93599.44
2022-09-12T08:43:31.290Z,93600.19
2022-09-12T08:44:53.486Z,93602.09
2022-09-12T08:45:59.216Z,93608.72
2022-09-12T08:47:11.053Z,93599.50
2022-09-12T08:48:10.190Z,93594.16
2022-09-12T08:49:12.675Z,93605.09
2022-09-12T08:50:12.176Z,93600.03
2022-09-12T08:51:15.139Z,93601.16
2022-09-12T08:52:17.350Z,93594.22
2022-09-12T08:53:20.336Z,93594.25
2022-09-12T08:54:25.296Z,93601.25
2022-09-12T08:55:38.233Z,93602.59
2022-09-12T08:56:37.687Z,93603.88
2022-09-12T08:57:34.482Z,93598.81
2022-09-12T08:58:39.562Z,93597.59
2022-09-12T08:59:39.862Z,93596.41
2022-09-12T09:01:07.408Z,93596.47
2022-09-12T09:02:14.873Z,93579.31
2022-09-12T09:03:33.456Z,93589.25
2022-09-12T09:04:51.918Z,93580.00
2022-09-12T09:06:03.105Z,93589.84
2022-09-12T09:07:05.964Z,93593.13
2022-09-12T09:08:08.963Z,93593.47
2022-09-12T09:09:05.491Z,93592.03
2022-09-12T09:10:20.475Z,93587.09
2022-09-12T09:11:55.117Z,93579.50
2022-09-12T09:13:35.653Z,93592.75
2022-09-12T09:14:50.416Z,93590.75
2022-09-12T09:16:05.882Z,93590.78
2022-09-12T09:17:03.345Z,93576.22
2022-09-12T09:18:06.450Z,93570.03
2022-09-12T09:19:10.873Z,93577.31
2022-09-12T09:20:41.310Z,93586.34
2022-09-12T09:21:45.132Z,93585.09
2022-09-12T09:23:06.429Z,93579.22
2022-09-12T09:24:10.331Z,93578.78
2022-09-12T09:25:22.117Z,93576.28
2022-09-12T09:26:40.205Z,93576.91
2022-09-12T09:27:46.515Z,93582.22
2022-09-12T09:28:49.997Z,93562.94
2022-09-12T09:29:51.223Z,93561.25
2022-09-12T09:30:47.869Z,93572.31
2022-09-12T09:31:49.979Z,93581.13
2022-09-12T09:32:51.039Z,93575.53
2022-09-12T09:33:55.497Z,93570.59
2022-09-12T09:34:52.372Z,93567.63
2022-09-12T09:35:59.227Z,93569.88
2022-09-12T09:37:03.983Z,93575.19
2022-09-12T09:38:06.776Z,93576.94
2022-09-12T09:39:24.650Z,93577.22
2022-09-12T09:40:31.862Z,93567.09
2022-09-12T09:41:43.839Z,93573.50
2022-09-12T09:42:54.017Z,93568.06
2022-09-12T09:43:50.753Z,93560.53
2022-09-12T09:44:49.134Z,93561.81
2022-09-12T09:45:47.874Z,93541.81
2022-09-12T09:46:44.964Z,93560.72
2022-09-12T09:47:43.221Z,93559.91
2022-09-12T09:48:48.808Z,93558.75
2022-09-12T09:49:45.788Z,93562.91
2022-09-12T09:50:43.861Z,93555.56
2022-09-12T09:51:42.786Z,93547.03
2022-09-12T09:52:40.068Z,93561.72
2022-09-12T09:53:53.365Z,93558.31
2022-09-12T09:54:57.828Z,93527.88
2022-09-12T09:55:56.795Z,93555.53
2022-09-12T09:56:53.415Z,93562.06
2022-09-12T09:57:52.068Z,93559.19
2022-09-12T09:58:48.801Z,93559.16
2022-09-12T09:59:45.378Z,93554.13
2022-09-12T10:00:42.073Z,93537.47
2022-09-12T10:01:51.538Z,93556.78
2022-09-12T10:03:13.572Z,93560.72
2022-09-12T10:04:23.488Z,93553.25
2022-09-12T10:05:20.109Z,93557.97
2022-09-12T10:06:25.605Z,93555.72
2022-09-12T10:07:23.196Z,93546.56
2022-09-12T10:08:21.350Z,93542.81
2022-09-12T10:09:19.708Z,93554.47
2022-09-12T10:10:19.079Z,93556.78
2022-09-12T10:11:15.602Z,93552.25
2022-09-12T10:12:30.832Z,93536.25
2022-09-12T10:13:43.002Z,93552.69
2022-09-12T10:14:41.732Z,93546.94
2022-09-12T10:15:38.452Z,93549.50
2022-09-12T10:16:52.712Z,93541.28
2022-09-12T10:17:50.997Z,93533.19
2022-09-12T10:18:48.549Z,93543.66
2022-09-12T10:19:52.645Z,93532.16
2022-09-12T10:20:57.196Z,93547.22
2022-09-12T10:21:57.064Z,93555.31
2022-09-12T10:22:53.840Z,93545.13
2022-09-12T10:24:04.017Z,93549.03
2022-09-12T10:25:01.436Z,93541.41
2022-09-12T10:26:01.546Z,93541.75
2022-09-12T10:27:05.944Z,93539.75
2022-09-12T10:28:02.949Z,93549.44
2022-09-12T10:29:06.841Z,93546.47
2022-09-12T10:30:17.711Z,93542.19
2022-09-12T10:31:17.212Z,93552.09
2022-09-12T10:32:30.507Z,93550.03
2022-09-12T10:33:28.361Z,93537.41
2022-09-12T10:34:25.569Z,93545.78
2022-09-12T10:35:31.062Z,93544.88
2022-09-12T10:36:37.311Z,93549.19
2022-09-12T10:37:37.381Z,93539.94
2022-09-12T10:38:34.540Z,93546.69
2022-09-12T10:39:32.773Z,93553.38
2022-09-12T10:40:34.555Z,93552.34
2022-09-12T10:41:39.992Z,93543.06
2022-09-12T10:42:53.209Z,93540.63
2022-09-12T10:43:50.595Z,93543.53
2022-09-12T10:44:54.323Z,93539.94
2022-09-12T10:45:51.157Z,93536.41
2022-09-12T10:46:47.848Z,93539.31
2022-09-12T10:47:44.478Z,93540.53
2022-09-12T10:48:41.827Z,93541.75
2022-09-12T10:49:40.389Z,93541.81
2022-09-12T10:50:44.095Z,93531.53
2022-09-12T10:51:40.751Z,93535.19
2022-09-12T10:52:37.316Z,93537.19
2022-09-12T10:53:43.628Z,93534.50
2022-09-12T10:54:40.744Z,93538.53
2022-09-12T10:55:37.366Z,93532.06
2022-09-12T10:56:39.512Z,93541.69
2022-09-12T10:57:47.821Z,93546.19
2022-09-12T10:58:50.256Z,93527.75
2022-09-12T10:59:52.731Z,93531.38
2022-09-12T11:00:59.652Z,93533.78
2022-09-12T11:02:01.816Z,93543.13
2022-09-12T11:03:43.353Z,93547.78
2022-09-12T11:05:00.767Z,93539.22
2022-09-12T11:06:02.038Z,93547.00
2022-09-12T11:07:19.640Z,93535.31
2022-09-12T11:08:34.716Z,93532.91
2022-09-12T11:09:56.024Z,93547.06
2022-09-12T11:11:05.698Z,93557.25
2022-09-12T11:12:17.245Z,93545.16
2022-09-12T11:13:22.788Z,93554.47
2022-09-12T11:14:44.041Z,93553.19
2022-09-12T11:15:49.156Z,93547.25
2022-09-12T11:16:57.861Z,93548.38
2022-09-12T11:18:05.380Z,93547.31
2022-09-12T11:19:35.923Z,93549.38
2022-09-12T11:20:58.723Z,93546.66
2022-09-12T11:22:07.363Z,93551.22
2022-09-12T11:23:24.577Z,93540.66
2022-09-12T11:24:21.269Z,93552.34
2022-09-12T11:25:41.149Z,93545.66
2022-09-12T11:27:10.025Z,93546.75
2022-09-12T11:28:34.584Z,93553.78
2022-09-12T11:29:59.254Z,93554.34
2022-09-12T11:31:10.903Z,93548.13
2022-09-12T11:32:22.662Z,93558.09
2022-09-12T11:33:25.471Z,93570.19
2022-09-12T11:34:49.753Z,93546.13
2022-09-12T11:35:55.155Z,93554.09
2022-09-12T11:37:17.951Z,93554.41
2022-09-12T11:38:51.438Z,93561.28
2022-09-12T11:39:55.693Z,93553.59
2022-09-12T11:41:06.536Z,93549.06
2022-09-12T11:42:06.282Z,93546.09
2022-09-12T11:43:11.997Z,93540.03
2022-09-12T11:44:19.125Z,93539.66
2022-09-12T11:45:46.058Z,93544.22
2022-09-12T11:46:46.719Z,93535.22
2022-09-12T11:47:50.245Z,93537.84
2022-09-12T11:49:15.529Z,93539.03
2022-09-12T11:50:38.417Z,93535.16
2022-09-12T11:51:42.660Z,93541.91
2022-09-12T11:52:40.673Z,93537.59
2022-09-12T11:53:40.823Z,93550.66
2022-09-12T11:54:59.995Z,93543.63
2022-09-12T11:56:08.745Z,93541.50
2022-09-12T11:57:20.676Z,93536.19
2022-09-12T11:58:21.080Z,93536.38
2022-09-12T11:59:31.223Z,93543.09
2022-09-12T12:00:34.207Z,93534.16
2022-09-12T12:01:48.500Z,93543.03
2022-09-12T12:03:00.396Z,93543.00
2022-09-12T12:03:58.670Z,93543.91
2022-09-12T12:05:17.070Z,93537.72
2022-09-12T12:06:21.371Z,93531.00
2022-09-12T12:07:18.069Z,93536.88
2022-09-12T12:08:14.918Z,93534.19
2022-09-12T12:09:13.435Z,93531.28
2022-09-12T12:10:36.971Z,93534.47
2022-09-12T12:11:38.443Z,93537.84